Time,TemperatureF,DewpointF,PressureIn,WindDirection,WindDirectionDegrees,WindSpeedMPH,WindSpeedGustMPH,Humidity,HourlyPrecipIn,Conditions,Clouds,dailyrainin,SoftwareType,DateUTC
2014-03-13 00:00:00,22.1,13.8,29.15,NNE,29,7.0,8.0,70,0.00,,,0.49,Wunderground v.1.15,2014-03-13 04:00:00,
2014-03-13 00:10:00,21.5,13.2,29.15,North,360,7.0,7.0,70,0.00,,,0.00,Wunderground v.1.15,2014-03-13 04:10:00,
2014-03-13 00:20:00,21.0,12.7,29.16,NNE,30,8.0,8.0,70,0.00,,,0.00,Wunderground v.1.15,2014-03-13 04:20:00,
2014-03-13 00:30:00,20.5,11.9,29.16,NNE,15,9.0,9.0,69,0.00,,,0.00,Wunderground v.1.15,2014-03-13 04:30:00,
2014-03-13 00:40:00,20.0,11.5,29.17,NE,48,10.0,14.0,69,0.00,,,0.00,Wunderground v.1.15,2014-03-13 04:40:00,
2014-03-13 00:50:00,19.8,11.9,29.17,NNE,17,6.0,7.0,71,0.00,,,0.00,Wunderground v.1.15,2014-03-13 04:50:00,
2014-03-13 01:00:00,19.4,10.2,29.16,North,9,10.0,10.0,67,0.00,,,0.00,Wunderground v.1.15,2014-03-13 05:00:00,
2014-03-13 01:10:00,19.1,10.3,29.16,NNE,14,9.0,9.0,68,0.00,,,0.00,Wunderground v.1.15,2014-03-13 05:10:00,
2014-03-13 01:20:00,18.9,9.7,29.18,North,355,10.0,10.0,67,0.00,,,0.00,Wunderground v.1.15,2014-03-13 05:20:00,
2014-03-13 01:30:00,18.6,9.1,29.19,NNE,33,12.0,12.0,66,0.00,,,0.00,Wunderground v.1.15,2014-03-13 05:30:00,
2014-03-13 01:40:00,18.4,9.3,29.21,NNE,33,8.0,11.0,67,0.00,,,0.00,Wunderground v.1.15,2014-03-13 05:40:00,
2014-03-13 01:50:00,18.4,9.6,29.22,NE,41,7.0,9.0,68,0.00,,,0.00,Wunderground v.1.15,2014-03-13 05:50:00,
2014-03-13 02:00:00,18.4,8.9,29.23,NNE,33,8.0,12.0,66,0.00,,,0.00,Wunderground v.1.15,2014-03-13 06:00:00,
2014-03-13 02:10:00,18.2,8.7,29.23,NNW,340,8.0,8.0,66,0.00,,,0.00,Wunderground v.1.15,2014-03-13 06:10:00,
2014-03-13 02:20:00,18.0,8.5,29.24,NE,36,11.0,11.0,66,0.00,,,0.00,Wunderground v.1.15,2014-03-13 06:20:00,
2014-03-13 03:40:00,17.2,7.8,29.26,NNW,345,6.0,6.0,66,0.00,,,0.00,Wunderground v.1.15,2014-03-13 07:40:00,
2014-03-13 04:00:00,16.8,6.7,29.28,NNW,345,7.0,7.0,64,0.00,,,0.00,Wunderground v.1.15,2014-03-13 08:00:00,
2014-03-13 04:10:00,16.7,6.6,29.28,NNE,23,8.0,11.0,64,0.00,,,0.00,Wunderground v.1.15,2014-03-13 08:10:00,
2014-03-13 04:20:00,16.7,6.3,29.29,NNE,15,8.0,8.0,63,0.00,,,0.00,Wunderground v.1.15,2014-03-13 08:20:00,
2014-03-13 04:30:00,16.7,6.6,29.30,NNE,18,7.0,7.0,64,0.00,,,0.00,Wunderground v.1.15,2014-03-13 08:30:00,
2014-03-13 04:40:00,16.7,6.3,29.32,NW,318,7.0,14.0,63,0.00,,,0.00,Wunderground v.1.15,2014-03-13 08:40:00,
2014-03-13 04:50:00,16.6,6.2,29.31,NNE,28,7.0,7.0,63,0.00,,,0.00,Wunderground v.1.15,2014-03-13 08:50:00,
2014-03-13 05:00:00,16.6,7.2,29.32,North,349,5.0,5.0,66,0.00,,,0.00,Wunderground v.1.15,2014-03-13 09:00:00,
2014-03-13 05:10:00,16.4,7.0,29.32,NW,323,6.0,6.0,66,0.00,,,0.00,Wunderground v.1.15,2014-03-13 09:10:00,
2014-03-13 05:20:00,16.3,7.3,29.33,NNE,26,5.0,5.0,67,0.00,,,0.00,Wunderground v.1.15,2014-03-13 09:20:00,
2014-03-13 05:30:00,16.2,6.5,29.33,North,360,5.0,5.0,65,0.00,,,0.00,Wunderground v.1.15,2014-03-13 09:30:00,
2014-03-13 05:40:00,16.2,6.5,29.34,NW,325,5.0,5.0,65,0.00,,,0.00,Wunderground v.1.15,2014-03-13 09:40:00,
2014-03-13 05:50:00,16.1,6.4,29.35,NNE,17,5.0,9.0,65,0.00,,,0.00,Wunderground v.1.15,2014-03-13 09:50:00,
2014-03-13 06:00:00,16.1,6.1,29.35,North,355,4.0,8.0,64,0.00,,,0.00,Wunderground v.1.15,2014-03-13 10:00:00,
2014-03-13 06:10:00,16.1,5.7,29.36,North,355,6.0,6.0,63,0.00,,,0.00,Wunderground v.1.15,2014-03-13 10:10:00,
2014-03-13 06:20:00,16.1,5.7,29.36,North,349,5.0,5.0,63,0.00,,,0.00,Wunderground v.1.15,2014-03-13 10:20:00,
2014-03-13 06:30:00,16.0,5.3,29.37,NNW,344,7.0,7.0,62,0.00,,,0.00,Wunderground v.1.15,2014-03-13 10:30:00,
2014-03-13 06:40:00,16.0,5.6,29.37,North,360,7.0,7.0,63,0.00,,,0.00,Wunderground v.1.15,2014-03-13 10:40:00,
2014-03-13 06:50:00,15.8,5.8,29.38,NNW,329,4.0,4.0,64,0.00,,,0.00,Wunderground v.1.15,2014-03-13 10:50:00,
2014-03-13 07:00:00,16.0,5.6,29.39,NNE,29,7.0,7.0,63,0.00,,,0.00,Wunderground v.1.15,2014-03-13 11:00:00,
2014-03-13 07:10:00,16.0,6.0,29.40,NNW,327,5.0,7.0,64,0.00,,,0.00,Wunderground v.1.15,2014-03-13 11:10:00,
2014-03-13 07:20:00,15.8,5.4,29.40,NW,310,4.0,5.0,63,0.00,,,0.00,Wunderground v.1.15,2014-03-13 11:20:00,
2014-03-13 07:30:00,15.8,5.4,29.41,North,350,5.0,5.0,63,0.00,,,0.00,Wunderground v.1.15,2014-03-13 11:30:00,
2014-03-13 07:40:00,15.8,4.7,29.41,North,5,7.0,7.0,61,0.00,,,0.00,Wunderground v.1.15,2014-03-13 11:40:00,
2014-03-13 07:50:00,15.8,4.7,29.42,NW,304,6.0,15.0,61,0.00,,,0.00,Wunderground v.1.15,2014-03-13 11:50:00,
2014-03-13 08:00:00,15.7,4.3,29.43,North,360,6.0,6.0,60,0.00,,,0.00,Wunderground v.1.15,2014-03-13 12:00:00,
2014-03-13 08:10:00,15.5,4.4,29.44,NW,322,5.0,6.0,61,0.00,,,0.00,Wunderground v.1.15,2014-03-13 12:10:00,
2014-03-13 08:20:00,15.6,4.2,29.45,NNW,346,7.0,7.0,60,0.00,,,0.00,Wunderground v.1.15,2014-03-13 12:20:00,
2014-03-13 08:30:00,15.6,4.5,29.46,NNW,342,5.0,5.0,61,0.00,,,0.00,Wunderground v.1.15,2014-03-13 12:30:00,
2014-03-13 08:40:00,15.7,5.0,29.47,NNW,329,4.0,6.0,62,0.00,,,0.00,Wunderground v.1.15,2014-03-13 12:40:00,
2014-03-13 08:50:00,15.8,4.7,29.47,North,360,4.0,4.0,61,0.00,,,0.00,Wunderground v.1.15,2014-03-13 12:50:00,
2014-03-13 09:00:00,15.9,4.4,29.47,NE,50,5.0,5.0,60,0.00,,,0.00,Wunderground v.1.15,2014-03-13 13:00:00,
2014-03-13 09:10:00,16.3,4.1,29.48,North,5,7.0,9.0,58,0.00,,,0.00,Wunderground v.1.15,2014-03-13 13:10:00,
2014-03-13 09:20:00,16.9,5.0,29.49,North,360,7.0,7.0,59,0.00,,,0.00,Wunderground v.1.15,2014-03-13 13:20:00,
2014-03-13 09:30:00,16.8,4.9,29.49,North,5,8.0,8.0,59,0.00,,,0.00,Wunderground v.1.15,2014-03-13 13:30:00,
2014-03-13 09:40:00,16.5,5.0,29.50,NW,319,7.0,7.0,60,0.00,,,0.00,Wunderground v.1.15,2014-03-13 13:40:00,
2014-03-13 09:50:00,17.3,5.8,29.50,NNW,334,4.0,4.0,60,0.00,,,0.00,Wunderground v.1.15,2014-03-13 13:50:00,
2014-03-13 10:00:00,18.2,6.3,29.51,NW,317,5.0,5.0,59,0.00,,,0.00,Wunderground v.1.15,2014-03-13 14:00:00,
2014-03-13 10:10:00,18.0,6.4,29.51,NW,325,6.0,11.0,60,0.00,,,0.00,Wunderground v.1.15,2014-03-13 14:10:00,
2014-03-13 10:20:00,17.9,6.3,29.52,North,350,9.0,13.0,60,0.00,,,0.00,Wunderground v.1.15,2014-03-13 14:20:00,
2014-03-13 10:30:00,18.9,7.7,29.52,NNW,344,6.0,7.0,61,0.00,,,0.00,Wunderground v.1.15,2014-03-13 14:30:00,
2014-03-13 10:40:00,19.0,6.3,29.53,NW,326,6.0,6.0,57,0.00,,,0.00,Wunderground v.1.15,2014-03-13 14:40:00,
2014-03-13 10:50:00,19.2,6.8,29.53,NNE,17,7.0,7.0,58,0.00,,,0.00,Wunderground v.1.15,2014-03-13 14:50:00,
2014-03-13 11:00:00,20.1,8.1,29.53,NNE,13,5.0,6.0,59,0.00,,,0.00,Wunderground v.1.15,2014-03-13 15:00:00,
2014-03-13 11:10:00,20.1,6.5,29.54,NNE,18,5.0,5.0,55,0.00,,,0.00,Wunderground v.1.15,2014-03-13 15:10:00,
2014-03-13 11:20:00,19.9,6.3,29.55,NNW,346,7.0,7.0,55,0.00,,,0.00,Wunderground v.1.15,2014-03-13 15:20:00,
2014-03-13 11:30:00,19.8,5.8,29.54,NNW,339,8.0,15.0,54,0.00,,,0.00,Wunderground v.1.15,2014-03-13 15:30:00,
2014-03-13 11:40:00,20.0,6.0,29.54,West,281,9.0,9.0,54,0.00,,,0.00,Wunderground v.1.15,2014-03-13 15:40:00,
2014-03-13 11:50:00,20.9,5.6,29.54,North,5,7.0,7.0,51,0.00,,,0.00,Wunderground v.1.15,2014-03-13 15:50:00,
2014-03-13 12:00:00,21.2,5.4,29.55,NNE,27,7.0,10.0,50,0.00,,,0.00,Wunderground v.1.15,2014-03-13 16:00:00,
2014-03-13 12:10:00,21.5,5.7,29.55,NNE,12,6.0,10.0,50,0.00,,,0.00,Wunderground v.1.15,2014-03-13 16:10:00,
2014-03-13 12:20:00,22.0,5.7,29.56,NNW,345,7.0,7.0,49,0.00,,,0.00,Wunderground v.1.15,2014-03-13 16:20:00,
2014-03-13 12:30:00,22.6,6.7,29.56,NE,37,6.0,6.0,50,0.00,,,0.00,Wunderground v.1.15,2014-03-13 16:30:00,
2014-03-13 12:40:00,22.8,6.0,29.56,NNW,330,7.0,7.0,48,0.00,,,0.00,Wunderground v.1.15,2014-03-13 16:40:00,
2014-03-13 12:50:00,23.1,6.3,29.57,WNW,296,7.0,11.0,48,0.00,,,0.00,Wunderground v.1.15,2014-03-13 16:50:00,
2014-03-13 13:00:00,23.4,4.2,29.57,North,360,6.0,6.0,43,0.00,,,0.00,Wunderground v.1.15,2014-03-13 17:00:00,
2014-03-13 13:10:00,23.6,3.3,29.57,North,5,7.0,10.0,41,0.00,,,0.00,Wunderground v.1.15,2014-03-13 17:10:00,
2014-03-13 13:20:00,24.2,5.4,29.58,NNW,348,6.0,12.0,44,0.00,,,0.00,Wunderground v.1.15,2014-03-13 17:20:00,
2014-03-13 13:30:00,24.2,3.9,29.57,NNE,26,7.0,7.0,41,0.00,,,0.00,Wunderground v.1.15,2014-03-13 17:30:00,
2014-03-13 13:40:00,24.4,4.6,29.58,WNW,297,6.0,6.0,42,0.00,,,0.00,Wunderground v.1.15,2014-03-13 17:40:00,
2014-03-13 13:50:00,24.2,3.9,29.58,North,355,8.0,16.0,41,0.00,,,0.00,Wunderground v.1.15,2014-03-13 17:50:00,
2014-03-13 14:00:00,24.6,3.7,29.58,NE,40,7.0,8.0,40,0.00,,,0.00,Wunderground v.1.15,2014-03-13 18:00:00,
2014-03-13 14:10:00,25.2,5.3,29.58,NW,326,6.0,13.0,42,0.00,,,0.00,Wunderground v.1.15,2014-03-13 18:10:00,
2014-03-13 14:20:00,25.4,4.4,29.59,NNE,32,6.0,6.0,40,0.00,,,0.00,Wunderground v.1.15,2014-03-13 18:20:00,
2014-03-13 14:30:00,25.0,3.5,29.59,NE,40,7.0,11.0,39,0.00,,,0.00,Wunderground v.1.15,2014-03-13 18:30:00,
2014-03-13 14:40:00,25.2,5.3,29.60,NNE,13,5.0,5.0,42,0.00,,,0.00,Wunderground v.1.15,2014-03-13 18:40:00,
2014-03-13 14:50:00,25.5,3.4,29.60,NNW,346,6.0,13.0,38,0.00,,,0.00,Wunderground v.1.15,2014-03-13 18:50:00,
2014-03-13 15:00:00,25.6,3.5,29.60,NW,317,8.0,8.0,38,0.00,,,0.00,Wunderground v.1.15,2014-03-13 19:00:00,
2014-03-13 15:10:00,25.8,3.6,29.60,NW,318,6.0,12.0,38,0.00,,,0.00,Wunderground v.1.15,2014-03-13 19:10:00,
2014-03-13 15:20:00,25.7,4.1,29.61,North,360,10.0,10.0,39,0.00,,,0.00,Wunderground v.1.15,2014-03-13 19:20:00,
2014-03-13 15:30:00,26.0,3.8,29.62,NNE,26,8.0,8.0,38,0.00,,,0.00,Wunderground v.1.15,2014-03-13 19:30:00,
2014-03-13 15:40:00,26.3,3.5,29.62,NW,307,8.0,9.0,37,0.00,,,0.00,Wunderground v.1.15,2014-03-13 19:40:00,
2014-03-13 15:50:00,26.3,3.5,29.63,NNW,329,8.0,8.0,37,0.00,,,0.00,Wunderground v.1.15,2014-03-13 19:50:00,
2014-03-13 16:00:00,26.5,3.7,29.63,North,350,7.0,7.0,37,0.00,,,0.00,Wunderground v.1.15,2014-03-13 20:00:00,
2014-03-13 16:10:00,26.6,3.2,29.63,NNE,26,9.0,9.0,36,0.00,,,0.00,Wunderground v.1.15,2014-03-13 20:10:00,
2014-03-13 16:20:00,26.8,4.0,29.64,NNW,340,5.0,7.0,37,0.00,,,0.00,Wunderground v.1.15,2014-03-13 20:20:00,
2014-03-13 16:30:00,26.8,3.4,29.64,NNW,346,7.0,7.0,36,0.00,,,0.00,Wunderground v.1.15,2014-03-13 20:30:00,
2014-03-13 16:40:00,26.7,2.0,29.64,North,11,8.0,8.0,34,0.00,,,0.00,Wunderground v.1.15,2014-03-13 20:40:00,
2014-03-13 16:50:00,26.9,2.8,29.65,NW,326,7.0,14.0,35,0.00,,,0.00,Wunderground v.1.15,2014-03-13 20:50:00,
2014-03-13 17:00:00,26.8,2.1,29.65,North,349,9.0,10.0,34,0.00,,,0.00,Wunderground v.1.15,2014-03-13 21:00:00,
2014-03-13 17:10:00,26.8,2.1,29.66,NNE,30,7.0,7.0,34,0.00,,,0.00,Wunderground v.1.15,2014-03-13 21:10:00,
2014-03-13 17:20:00,26.3,1.0,29.67,NNE,18,8.0,8.0,33,0.00,,,0.00,Wunderground v.1.15,2014-03-13 21:20:00,
2014-03-13 17:30:00,26.6,0.7,29.67,NNW,340,7.0,10.0,32,0.00,,,0.00,Wunderground v.1.15,2014-03-13 21:30:00,
2014-03-13 17:40:00,26.5,1.2,29.67,NNW,336,7.0,8.0,33,0.00,,,0.00,Wunderground v.1.15,2014-03-13 21:40:00,
2014-03-13 17:50:00,26.6,0.7,29.68,NW,321,7.0,7.0,32,0.00,,,0.00,Wunderground v.1.15,2014-03-13 21:50:00,
2014-03-13 18:00:00,26.3,-1.0,29.68,NE,53,8.0,10.0,30,0.00,,,0.00,Wunderground v.1.15,2014-03-13 22:00:00,
2014-03-13 18:10:00,26.2,-0.4,29.69,NE,35,6.0,9.0,31,0.00,,,0.00,Wunderground v.1.15,2014-03-13 22:10:00,
2014-03-13 18:20:00,26.2,0.3,29.69,NNE,26,5.0,5.0,32,0.00,,,0.00,Wunderground v.1.15,2014-03-13 22:20:00,
2014-03-13 18:30:00,26.3,-0.3,29.71,North,5,6.0,6.0,31,0.00,,,0.00,Wunderground v.1.15,2014-03-13 22:30:00,
2014-03-13 18:40:00,26.2,1.0,29.72,NW,321,5.0,5.0,33,0.00,,,0.00,Wunderground v.1.15,2014-03-13 22:40:00,
2014-03-13 18:50:00,26.1,0.9,29.73,NNW,330,4.0,4.0,33,0.00,,,0.00,Wunderground v.1.15,2014-03-13 22:50:00,
2014-03-13 19:00:00,25.7,1.2,29.74,NNW,343,2.0,2.0,34,0.00,,,0.00,Wunderground v.1.15,2014-03-13 23:00:00,
2014-03-13 19:10:00,25.7,0.5,29.74,NNW,341,5.0,5.0,33,0.00,,,0.00,Wunderground v.1.15,2014-03-13 23:10:00,
2014-03-13 19:20:00,25.5,1.0,29.75,NW,319,3.0,3.0,34,0.00,,,0.00,Wunderground v.1.15,2014-03-13 23:20:00,
2014-03-13 19:30:00,25.2,1.9,29.76,NW,320,2.0,3.0,36,0.00,,,0.00,Wunderground v.1.15,2014-03-13 23:30:00,
2014-03-13 19:40:00,25.1,1.8,29.77,NNW,341,2.0,2.0,36,0.00,,,0.00,Wunderground v.1.15,2014-03-13 23:40:00,
2014-03-13 19:50:00,25.0,2.3,29.78,North,350,2.0,7.0,37,0.00,,,0.00,Wunderground v.1.15,2014-03-13 23:50:00,
2014-03-13 20:00:00,24.9,1.7,29.78,NNE,26,3.0,7.0,36,0.00,,,0.00,Wunderground v.1.15,2014-03-14 00:00:00,
2014-03-13 20:10:00,24.9,1.1,29.79,NW,317,4.0,7.0,35,0.00,,,0.00,Wunderground v.1.15,2014-03-14 00:10:00,
2014-03-13 20:20:00,24.8,1.0,29.80,NW,317,3.0,18.0,35,0.00,,,0.00,Wunderground v.1.15,2014-03-14 00:20:00,
2014-03-13 20:30:00,24.7,0.3,29.80,NW,316,4.0,5.0,34,0.00,,,0.00,Wunderground v.1.15,2014-03-14 00:30:00,
2014-03-13 20:40:00,24.6,0.8,29.81,NNW,329,3.0,3.0,35,0.00,,,0.00,Wunderground v.1.15,2014-03-14 00:40:00,
2014-03-13 20:50:00,24.3,0.5,29.82,NNW,329,1.0,2.0,35,0.00,,,0.00,Wunderground v.1.15,2014-03-14 00:50:00,
2014-03-13 21:00:00,24.0,1.5,29.83,NW,325,1.0,3.0,37,0.00,,,0.00,Wunderground v.1.15,2014-03-14 01:00:00,
2014-03-13 21:10:00,23.8,1.3,29.83,NNW,327,1.0,1.0,37,0.00,,,0.00,Wunderground v.1.15,2014-03-14 01:10:00,
2014-03-13 21:20:00,23.8,1.3,29.84,NW,318,1.0,1.0,37,0.00,,,0.00,Wunderground v.1.15,2014-03-14 01:20:00,
2014-03-13 21:30:00,23.9,1.4,29.84,NNW,331,2.0,2.0,37,0.00,,,0.00,Wunderground v.1.15,2014-03-14 01:30:00,
2014-03-13 21:40:00,24.0,0.9,29.84,NW,317,2.0,2.0,36,0.00,,,0.00,Wunderground v.1.15,2014-03-14 01:40:00,
2014-03-13 21:50:00,23.8,1.3,29.85,NW,326,2.0,4.0,37,0.00,,,0.00,Wunderground v.1.15,2014-03-14 01:50:00,
2014-03-13 22:00:00,23.5,1.6,29.85,NNW,331,1.0,1.0,38,0.00,,,0.00,Wunderground v.1.15,2014-03-14 02:00:00,
2014-03-13 22:10:00,23.8,0.7,29.86,NNW,330,3.0,3.0,36,0.00,,,0.00,Wunderground v.1.15,2014-03-14 02:10:00,
2014-03-13 22:20:00,23.8,0.7,29.86,North,350,2.0,2.0,36,0.00,,,0.00,Wunderground v.1.15,2014-03-14 02:20:00,
2014-03-13 22:30:00,24.0,0.9,29.87,NNW,334,4.0,4.0,36,0.00,,,0.00,Wunderground v.1.15,2014-03-14 02:30:00,
2014-03-13 22:40:00,23.8,0.7,29.87,NW,322,2.0,2.0,36,0.00,,,0.00,Wunderground v.1.15,2014-03-14 02:40:00,
2014-03-13 22:50:00,23.5,1.6,29.87,NW,322,1.0,1.0,38,0.00,,,0.00,Wunderground v.1.15,2014-03-14 02:50:00,
2014-03-13 23:00:00,23.3,1.4,29.88,NNW,335,1.0,1.0,38,0.00,,,0.00,Wunderground v.1.15,2014-03-14 03:00:00,
2014-03-13 23:10:00,23.3,1.4,29.88,NW,315,2.0,3.0,38,0.00,,,0.00,Wunderground v.1.15,2014-03-14 03:10:00,
2014-03-13 23:20:00,23.3,0.8,29.88,NW,322,1.0,1.0,37,0.00,,,0.00,Wunderground v.1.15,2014-03-14 03:20:00,
2014-03-13 23:30:00,23.0,1.1,29.89,NW,304,0.0,5.0,38,0.00,,,0.00,Wunderground v.1.15,2014-03-14 03:30:00,
2014-03-13 23:40:00,22.8,1.5,29.89,NW,313,1.0,1.0,39,0.00,,,0.00,Wunderground v.1.15,2014-03-14 03:40:00,
2014-03-13 23:50:00,22.7,1.4,29.90,NNW,335,1.0,1.0,39,0.00,,,0.00,Wunderground v.1.15,2014-03-14 03:50:00,